Time;durP1;ratioP1;P1;durP2;ratioP2;P2;SDS_P1;SDS_P2;PMS_P1;PMS_P2;Temp;Humidity;BMP_temperature;BMP_pressure;BME280_temperature;BME280_humidity;BME280_pressure;Samples;Min_cycle;Max_cycle;Signal;HPM_P1;HPM_P2
2023/10/10 00:01:43;;;;;;;7.90;3.97;;;;;;;16.18;55.51;99706.16;5091761;28;20226;-59
2023/10/10 00:04:12;;;;;;;9.13;3.80;;;;;;;16.26;55.29;99716.56;5091588;28;20195;-59
2023/10/10 00:06:39;;;;;;;4.90;3.67;;;;;;;16.26;54.44;99713.88;5092004;28;20195;-59
2023/10/10 00:09:09;;;;;;;6.87;4.23;;;;;;;16.31;54.90;99708.66;5091496;28;20293;-59
2023/10/10 00:11:37;;;;;;;8.47;3.87;;;;;;;16.31;54.28;99703.28;5091979;28;20194;-59
2023/10/10 00:14:06;;;;;;;8.03;3.70;;;;;;;16.41;54.32;99699.03;5091544;28;20201;-59
2023/10/10 00:16:37;;;;;;;9.17;3.70;;;;;;;16.39;54.46;99693.06;5091494;28;20278;-59
2023/10/10 00:19:17;;;;;;;7.90;4.30;;;;;;;16.40;54.34;99696.56;5091522;28;20183;-59
2023/10/10 00:21:44;;;;;;;8.47;4.17;;;;;;;16.47;54.45;99697.31;5071411;28;20661;-59
2023/10/10 00:24:11;;;;;;;9.90;3.83;;;;;;;16.55;53.64;99697.00;5071256;28;20192;-59
2023/10/10 00:26:38;;;;;;;10.33;4.20;;;;;;;16.65;54.22;99697.25;5071595;28;20192;-58
2023/10/10 00:29:07;;;;;;;10.27;4.10;;;;;;;16.77;53.94;99692.72;5078605;28;20215;-59
2023/10/10 00:31:43;;;;;;;11.17;4.37;;;;;;;16.90;53.76;99697.88;5071502;28;20306;-59
2023/10/10 00:34:10;;;;;;;9.93;4.20;;;;;;;17.00;53.47;99700.81;5071576;28;20216;-58
2023/10/10 00:36:37;;;;;;;9.00;4.23;;;;;;;17.05;53.44;99695.56;5071467;28;20226;-59
2023/10/10 00:39:21;;;;;;;9.83;4.17;;;;;;;17.08;53.52;99689.72;5079202;28;20674;-58
2023/10/10 00:41:53;;;;;;;8.50;4.43;;;;;;;17.06;53.29;99684.59;5091699;28;20187;-58
2023/10/10 00:44:22;;;;;;;7.20;4.50;;;;;;;17.06;53.25;99665.00;5091636;28;20218;-59
2023/10/10 00:46:54;;;;;;;11.47;4.30;;;;;;;17.11;52.98;99667.78;5090881;28;20199;-59
2023/10/10 00:49:24;;;;;;;10.93;5.03;;;;;;;17.16;52.59;99667.91;5091602;28;20207;-59
2023/10/10 00:51:53;;;;;;;9.00;4.53;;;;;;;17.09;52.59;99680.63;5091401;28;20298;-58
2023/10/10 00:54:27;;;;;;;8.67;4.70;;;;;;;16.91;53.00;99673.47;5090758;28;20195;-59
2023/10/10 00:56:56;;;;;;;10.13;4.67;;;;;;;16.84;54.13;99671.97;5091528;28;20179;-59
2023/10/10 00:59:29;;;;;;;8.63;4.97;;;;;;;16.92;54.41;99661.72;5091122;28;20797;-60
2023/10/10 01:01:57;;;;;;;7.80;4.50;;;;;;;17.03;53.83;99652.03;5091384;28;20267;-59
2023/10/10 01:04:35;;;;;;;9.80;4.53;;;;;;;17.07;53.53;99650.53;5090977;28;20254;-60
2023/10/10 01:07:06;;;;;;;8.73;4.73;;;;;;;16.88;53.54;99630.19;5095341;28;20199;-59
2023/10/10 01:09:34;;;;;;;11.93;4.90;;;;;;;16.99;53.44;99646.28;5094778;28;20205;-59
2023/10/10 01:12:04;;;;;;;9.77;4.63;;;;;;;16.92;54.04;99658.22;5094786;28;20665;-59
2023/10/10 01:14:31;;;;;;;15.70;5.30;;;;;;;16.96;52.77;99659.38;5094378;28;20188;-59
2023/10/10 01:16:59;;;;;;;7.70;4.93;;;;;;;16.98;53.20;99651.94;5094722;28;20192;-59
2023/10/10 01:19:28;;;;;;;11.27;4.93;;;;;;;17.09;53.30;99659.13;5092747;28;20664;-59
2023/10/10 01:21:58;;;;;;;7.83;4.90;;;;;;;17.06;53.25;99656.94;5074725;28;20653;-59
2023/10/10 01:24:25;;;;;;;17.20;5.40;;;;;;;17.06;53.36;99654.25;5086757;28;20241;-59
2023/10/10 01:26:52;;;;;;;10.73;5.13;;;;;;;17.10;52.62;99650.03;5094557;28;20187;-59
2023/10/10 01:29:25;;;;;;;13.03;5.73;;;;;;;17.07;53.00;99656.69;5094380;28;20748;-59
2023/10/10 01:31:52;;;;;;;13.30;5.07;;;;;;;17.13;53.29;99663.00;5094521;28;20189;-59
2023/10/10 01:34:32;;;;;;;10.93;5.37;;;;;;;17.22;52.96;99658.91;5093944;28;20198;-59
2023/10/10 01:37:07;;;;;;;8.73;5.23;;;;;;;17.24;53.49;99663.00;5094892;28;20183;-59
2023/10/10 01:39:53;;;;;;;10.33;4.87;;;;;;;17.12;53.62;99656.81;5094218;28;20219;-58
2023/10/10 01:42:31;;;;;;;10.00;5.00;;;;;;;17.16;53.98;99671.41;5094682;28;20185;-59
2023/10/10 01:45:02;;;;;;;7.80;5.20;;;;;;;17.18;54.14;99663.09;5093916;28;20662;-59
2023/10/10 01:47:34;;;;;;;8.80;4.87;;;;;;;17.18;53.71;99661.25;5094503;28;20199;-60
2023/10/10 01:50:07;;;;;;;10.80;4.80;;;;;;;17.21;52.81;99673.38;5093965;28;20215;-60
2023/10/10 01:52:37;;;;;;;5.53;4.30;;;;;;;17.22;52.64;99673.16;5094358;28;20187;-60
2023/10/10 01:55:05;;;;;;;10.37;4.03;;;;;;;17.22;52.68;99664.25;5093941;28;20202;-60
2023/10/10 01:57:32;;;;;;;9.47;4.83;;;;;;;17.17;53.17;99667.66;5093938;28;20190;-61
2023/10/10 02:00:05;;;;;;;12.20;5.00;;;;;;;17.23;53.46;99671.28;5093782;28;20229;-60
2023/10/10 02:02:34;;;;;;;10.60;5.10;;;;;;;17.15;53.97;99667.06;5093850;28;20247;-59
2023/10/10 02:05:03;;;;;;;10.33;4.27;;;;;;;17.13;54.52;99663.81;5093719;28;20198;-59
2023/10/10 02:07:32;;;;;;;10.80;4.87;;;;;;;17.14;53.85;99667.31;5093837;28;20222;-61
2023/10/10 02:10:12;;;;;;;9.20;4.30;;;;;;;17.12;54.23;99664.03;5087609;28;20222;-60
2023/10/10 02:12:39;;;;;;;11.70;5.20;;;;;;;17.06;53.53;99671.16;5093811;28;20183;-60
2023/10/10 02:15:11;;;;;;;12.37;5.20;;;;;;;16.97;54.18;99679.78;5094061;28;20201;-60
2023/10/10 02:17:39;;;;;;;9.20;4.10;;;;;;;16.82;54.15;99679.44;5093761;28;20184;-60
2023/10/10 02:20:19;;;;;;;15.80;5.13;;;;;;;16.63;54.76;99691.28;5093653;28;20211;-60
2023/10/10 02:22:51;;;;;;;9.67;4.27;;;;;;;16.66;55.37;99690.84;5093902;28;20183;-60
2023/10/10 02:25:39;;;;;;;10.07;4.70;;;;;;;16.61;54.79;99688.03;5093892;28;20270;-60
2023/10/10 02:28:19;;;;;;;7.67;4.10;;;;;;;16.55;54.85;99667.50;5093417;28;20180;-58
2023/10/10 02:30:50;;;;;;;6.73;4.20;;;;;;;16.67;54.85;99681.75;5093171;28;20206;-59
2023/10/10 02:33:26;;;;;;;11.17;4.90;;;;;;;16.65;54.94;99673.91;5093353;28;20183;-60
2023/10/10 02:35:56;;;;;;;11.60;4.93;;;;;;;16.69;55.76;99682.31;5093541;28;20183;-59
2023/10/10 02:38:31;;;;;;;8.23;4.57;;;;;;;16.66;55.39;99685.47;5093329;28;20244;-61
2023/10/10 02:41:15;;;;;;;10.63;4.40;;;;;;;16.64;55.84;99672.28;5073120;28;20221;-59
2023/10/10 02:43:56;;;;;;;6.07;4.33;;;;;;;16.69;54.82;99664.38;5072821;28;20183;-59
2023/10/10 02:46:33;;;;;;;9.17;4.40;;;;;;;16.63;55.58;99680.56;5073017;28;20202;-59
2023/10/10 02:49:09;;;;;;;10.90;5.10;;;;;;;16.64;55.65;99680.34;5077063;28;20204;-59
2023/10/10 02:51:40;;;;;;;12.83;4.40;;;;;;;16.69;55.51;99682.31;5093342;28;20182;-60
2023/10/10 02:54:20;;;;;;;7.93;4.17;;;;;;;16.72;55.45;99679.19;5093203;28;20233;-59
2023/10/10 02:56:49;;;;;;;9.90;4.13;;;;;;;16.77;54.92;99681.97;5093213;28;20266;-59
2023/10/10 02:59:21;;;;;;;9.90;4.67;;;;;;;16.84;54.93;99688.06;5092843;28;20266;-59
2023/10/10 03:01:57;;;;;;;21.33;4.97;;;;;;;16.84;54.82;99688.06;5092368;28;20227;-59
2023/10/10 03:04:52;;;;;;;10.00;4.60;;;;;;;16.90;55.11;99695.19;5093054;28;20183;-59
2023/10/10 03:07:19;;;;;;;19.33;5.13;;;;;;;16.96;54.16;99694.25;5092575;28;20194;-59
2023/10/10 03:10:14;;;;;;;10.77;5.17;;;;;;;16.99;54.05;99688.44;5092240;28;20202;-61
2023/10/10 03:12:41;;;;;;;10.50;5.17;;;;;;;16.97;54.23;99690.53;5092366;28;20282;-59
2023/10/10 03:15:14;;;;;;;7.63;4.30;;;;;;;16.86;54.55;99685.97;5092461;28;20191;-60
2023/10/10 03:17:47;;;;;;;15.80;5.33;;;;;;;16.90;54.61;99692.53;5092412;28;20586;-59
2023/10/10 03:20:25;;;;;;;9.10;6.23;;;;;;;16.63;53.46;99696.66;5083744;28;20183;-60
2023/10/10 03:23:10;;;;;;;11.03;7.13;;;;;;;16.70;52.94;99681.28;5071982;28;20180;-60
2023/10/10 03:25:48;;;;;;;6.63;5.80;;;;;;;16.62;52.84;99690.47;5072011;28;20685;-59
2023/10/10 03:28:19;;;;;;;9.27;6.47;;;;;;;16.51;52.34;99677.03;5082584;28;20262;-59
2023/10/10 03:31:03;;;;;;;10.13;5.57;;;;;;;16.57;52.72;99692.22;5092073;28;20722;-60
2023/10/10 03:33:35;;;;;;;16.60;6.63;;;;;;;16.66;52.89;99696.22;5092574;28;20195;-60
2023/10/10 03:38:58;;;;;;;11.73;7.20;;;;;;;16.76;51.74;99699.13;5089979;28;20219;-59
2023/10/10 05:25:41;;;;;;;20.70;5.13;;;;;;;17.18;50.84;99762.44;5074020;28;20184;-62
2023/10/10 05:28:09;;;;;;;11.60;5.47;;;;;;;17.26;50.33;99767.47;5073477;28;20203;-62
2023/10/10 05:30:42;;;;;;;13.33;5.57;;;;;;;17.35;49.65;99761.50;5088652;28;20215;-63
2023/10/10 05:33:09;;;;;;;19.93;5.80;;;;;;;17.20;50.27;99758.50;5077657;28;20238;-63
2023/10/10 05:35:37;;;;;;;5.97;5.30;;;;;;;17.22;51.50;99761.75;5073953;28;20196;-67
2023/10/10 05:38:08;;;;;;;15.97;5.00;;;;;;;17.64;54.76;99765.19;5072465;28;20230;-69
2023/10/10 05:40:38;;;;;;;13.50;5.10;;;;;;;18.02;51.02;99770.84;5087205;28;20188;-65
2023/10/10 05:43:09;;;;;;;14.17;5.97;;;;;;;18.28;48.12;99767.59;5077739;28;20188;-62
2023/10/10 05:45:36;;;;;;;16.43;6.90;;;;;;;18.37;46.93;99774.28;5073422;28;20199;-62
2023/10/10 05:48:03;;;;;;;16.03;6.37;;;;;;;18.29;47.19;99788.09;5073261;28;20293;-69
2023/10/10 05:50:32;;;;;;;22.73;6.73;;;;;;;18.28;47.35;99783.75;5085575;28;20848;-68
2023/10/10 05:53:00;;;;;;;18.93;5.97;;;;;;;18.19;46.93;99787.88;5079867;28;20203;-65
2023/10/10 05:55:28;;;;;;;10.77;5.93;;;;;;;18.11;48.02;99793.63;5077021;28;20630;-68
2023/10/10 05:57:57;;;;;;;20.83;6.23;;;;;;;18.13;47.48;99786.94;5091324;28;20258;-69
2023/10/10 06:00:26;;;;;;;17.10;6.50;;;;;;;18.16;47.78;99778.41;5092566;28;20275;-66
2023/10/10 06:02:53;;;;;;;15.63;5.37;;;;;;;18.27;47.62;99784.81;5075059;28;20283;-68
2023/10/10 06:05:19;;;;;;;15.13;5.97;;;;;;;18.28;47.95;99789.13;5081264;28;20665;-67
2023/10/10 06:07:49;;;;;;;40.60;8.97;;;;;;;18.26;48.42;99791.25;5083942;28;20197;-67
2023/10/10 06:10:17;;;;;;;46.13;9.10;;;;;;;18.35;49.01;99789.84;5078332;28;20217;-67
2023/10/10 06:12:46;;;;;;;114.97;10.37;;;;;;;18.33;48.39;99781.19;5071729;28;20198;-68
2023/10/10 06:15:16;;;;;;;20.27;5.17;;;;;;;18.28;47.27;99791.81;5084783;28;20236;-65
2023/10/10 06:17:43;;;;;;;23.33;6.17;;;;;;;18.25;47.51;99792.31;5091918;28;20180;-66
2023/10/10 06:20:15;;;;;;;17.37;5.70;;;;;;;18.27;48.73;99792.88;5091843;28;20195;-66
2023/10/10 06:22:44;;;;;;;20.63;5.40;;;;;;;18.40;48.12;99798.00;5092516;28;20195;-66
2023/10/10 06:25:11;;;;;;;34.07;7.30;;;;;;;18.52;47.26;99796.94;5092057;28;20649;-65
2023/10/10 06:27:40;;;;;;;33.13;7.90;;;;;;;18.63;47.81;99797.94;5092585;28;20247;-65
2023/10/10 06:30:17;;;;;;;27.07;7.10;;;;;;;18.74;47.30;99802.47;5080119;28;20270;-65
2023/10/10 06:32:43;;;;;;;32.33;7.20;;;;;;;18.63;47.47;99798.72;5081982;28;20180;-67
2023/10/10 06:35:26;;;;;;;48.80;7.53;;;;;;;18.64;47.37;99802.25;5080855;28;20634;-67
2023/10/10 06:37:53;;;;;;;30.93;6.77;;;;;;;18.60;47.59;99801.94;5081747;28;20284;-67
2023/10/10 06:40:25;;;;;;;20.40;6.50;;;;;;;18.57;47.56;99798.88;5081146;28;20248;-69
2023/10/10 06:42:55;;;;;;;24.97;5.93;;;;;;;18.55;48.47;99807.22;5082002;28;20553;-67
2023/10/10 06:45:24;;;;;;;24.30;6.50;;;;;;;18.44;49.12;99783.84;5091452;28;20206;-67
2023/10/10 06:47:52;;;;;;;15.87;6.03;;;;;;;18.48;49.67;99794.94;5086260;28;20195;-66
2023/10/10 06:50:21;;;;;;;25.33;6.73;;;;;;;18.45;49.87;99796.25;5084855;28;20253;-64
2023/10/10 06:52:52;;;;;;;21.10;7.63;;;;;;;18.46;50.17;99786.31;5083448;28;20284;-65
2023/10/10 06:55:22;;;;;;;26.47;7.37;;;;;;;18.42;50.54;99785.16;5072156;28;20215;-65
2023/10/10 06:57:57;;;;;;;59.47;10.20;;;;;;;18.47;50.86;99796.84;5087933;28;20237;-65
2023/10/10 07:00:32;;;;;;;32.47;7.47;;;;;;;18.52;51.26;99796.09;5092884;28;20209;-65
2023/10/10 07:02:59;;;;;;;18.73;6.43;;;;;;;18.58;51.08;99798.66;5080605;28;20220;-64
2023/10/10 07:05:27;;;;;;;21.57;6.33;;;;;;;18.77;51.17;99800.09;5075298;28;20198;-64
2023/10/10 07:07:58;;;;;;;23.77;8.50;;;;;;;18.84;50.04;99797.25;5080027;28;20275;-66
2023/10/10 07:10:35;;;;;;;19.27;7.23;;;;;;;18.93;50.17;99793.09;5081229;28;20287;-68
2023/10/10 07:13:01;;;;;;;38.33;8.80;;;;;;;18.94;49.18;99795.56;5075417;28;20283;-64
2023/10/10 07:15:34;;;;;;;29.07;8.03;;;;;;;19.01;49.11;99792.69;5079816;28;20264;-66
2023/10/10 07:18:08;;;;;;;41.10;9.53;;;;;;;19.17;48.86;99794.59;5082547;28;20185;-65
2023/10/10 07:23:21;;;;;;;36.33;8.97;;;;;;;19.73;48.13;99799.84;5082125;28;20187;-67
2023/10/10 07:25:58;;;;;;;37.47;7.23;;;;;;;19.81;48.06;99792.13;5080661;28;20217;-69
2023/10/10 07:28:26;;;;;;;30.07;9.03;;;;;;;19.89;48.84;99793.59;5083833;28;20190;-68
2023/10/10 07:30:54;;;;;;;23.83;8.13;;;;;;;20.07;49.10;99802.22;5079170;28;20576;-67
2023/10/10 07:33:23;;;;;;;37.53;8.30;;;;;;;20.28;49.37;99797.91;5081520;28;20622;-67
2023/10/10 07:35:53;;;;;;;17.70;7.83;;;;;;;20.45;47.60;99798.66;5082596;28;20184;-70
2023/10/10 07:38:23;;;;;;;24.60;8.00;;;;;;;20.39;47.62;99805.06;5080765;28;20187;-69
2023/10/10 07:40:52;;;;;;;27.53;7.20;;;;;;;20.47;47.37;99802.72;5082302;28;20191;-64
2023/10/10 07:43:18;;;;;;;27.57;8.50;;;;;;;20.72;46.92;99804.91;5075335;28;20290;-63
2023/10/10 07:45:45;;;;;;;20.30;7.73;;;;;;;20.93;46.79;99801.38;5080689;28;20196;-63
2023/10/10 07:51:06;;;;;;;13.93;5.83;;;;;;;21.47;46.03;99797.53;5073913;28;20588;-66
2023/10/10 07:53:42;;;;;;;28.37;6.43;;;;;;;21.64;45.62;99792.78;5080266;28;20210;-66
2023/10/10 07:56:08;;;;;;;27.43;6.50;;;;;;;21.71;45.58;99793.41;5074712;28;20219;-64
2023/10/10 07:58:43;;;;;;;24.42;7.30;;;;;;;21.70;45.62;99793.63;5069841;28;20434;-63
2023/10/10 08:01:16;;;;;;;22.23;6.13;;;;;;;21.81;45.21;99798.06;5071349;28;20215;-67
2023/10/10 08:03:45;;;;;;;16.87;5.90;;;;;;;22.02;45.08;99784.41;5089549;28;20223;-66
2023/10/10 08:06:16;;;;;;;21.93;6.53;;;;;;;22.27;44.81;99791.81;5091523;28;20263;-69
2023/10/10 08:08:44;;;;;;;21.63;6.40;;;;;;;22.46;44.24;99796.50;5082010;28;20266;-67
2023/10/10 08:11:13;;;;;;;18.50;5.90;;;;;;;22.64;44.47;99798.75;5090801;28;20795;-67
2023/10/10 08:13:42;;;;;;;19.97;5.43;;;;;;;22.79;44.44;99796.06;5089015;28;20207;-68
2023/10/10 08:16:09;;;;;;;24.37;5.80;;;;;;;23.01;43.50;99795.84;5086940;28;20250;-68
2023/10/10 08:18:49;;;;;;;19.27;5.93;;;;;;;23.25;43.45;99783.41;5085466;28;20188;-65
2023/10/10 08:21:22;;;;;;;15.77;5.97;;;;;;;23.36;43.48;99787.75;5086661;28;20197;-67
2023/10/10 08:23:53;;;;;;;23.73;6.35;;;;;;;23.50;43.79;99778.81;5070551;28;20492;-70
2023/10/10 08:26:24;;;;;;;23.57;6.20;;;;;;;23.75;48.90;99773.34;5088159;28;20558;-72
2023/10/10 08:28:52;;;;;;;11.07;4.73;;;;;;;23.90;43.19;99781.44;5089356;28;20182;-74
2023/10/10 08:31:18;;;;;;;13.27;4.30;;;;;;;23.72;43.40;99784.72;5089411;28;20825;-71
2023/10/10 08:33:46;;;;;;;23.20;5.30;;;;;;;23.83;43.89;99780.91;5082952;28;20191;-74
2023/10/10 08:36:23;;;;;;;21.63;4.73;;;;;;;23.85;43.40;99786.06;5081923;28;20567;-75
2023/10/10 08:38:51;;;;;;;12.43;3.87;;;;;;;23.93;42.99;99775.47;5077117;28;20190;-69
2023/10/10 08:41:22;;;;;;;20.43;4.27;;;;;;;24.21;42.25;99777.56;5079232;28;20256;-74
2023/10/10 08:43:57;;;;;;;14.50;5.70;;;;;;;24.67;41.61;99781.69;5077009;28;20234;-71
2023/10/10 08:46:27;;;;;;;7.97;6.03;;;;;;;24.88;41.55;99783.19;5078542;28;20214;-69
2023/10/10 08:48:56;;;;;;;14.03;5.57;;;;;;;24.94;40.58;99783.97;5086579;28;20227;-73
2023/10/10 08:51:23;;;;;;;11.67;5.57;;;;;;;25.11;41.15;99780.88;5090550;28;20309;-73
2023/10/10 08:53:52;;;;;;;15.47;4.90;;;;;;;25.15;40.69;99787.38;5090013;28;20666;-71
2023/10/10 08:56:20;;;;;;;10.57;4.33;;;;;;;24.76;41.34;99781.94;5088386;28;20252;-73
2023/10/10 08:58:46;;;;;;;11.57;3.97;;;;;;;24.78;41.39;99788.72;5090623;28;20200;-73
2023/10/10 09:01:13;;;;;;;14.13;4.20;;;;;;;24.67;41.46;99787.13;5084439;28;20203;-65
2023/10/10 09:03:45;;;;;;;11.30;4.20;;;;;;;24.76;41.30;99787.38;5070614;28;20191;-67
2023/10/10 09:06:17;;;;;;;10.80;4.63;;;;;;;24.86;41.41;99784.56;5076076;28;20198;-68
2023/10/10 09:08:44;;;;;;;7.83;3.50;;;;;;;25.00;40.89;99786.38;5078391;28;20287;-67
2023/10/10 09:11:13;;;;;;;7.13;4.47;;;;;;;25.14;40.87;99780.31;5070274;28;20234;-68
2023/10/10 09:13:51;;;;;;;6.37;3.63;;;;;;;25.43;40.02;99781.19;5069065;28;20210;-67
2023/10/10 09:16:19;;;;;;;11.33;3.37;;;;;;;25.62;39.11;99782.91;5068677;28;20279;-66
2023/10/10 09:19:08;;;;;;;8.07;3.53;;;;;;;25.76;39.04;99783.06;5085734;28;20230;-67
2023/10/10 09:21:50;;;;;;;11.27;3.90;;;;;;;26.23;38.33;99789.34;5069920;28;20189;-67
2023/10/10 09:24:27;;;;;;;12.23;4.03;;;;;;;26.90;37.41;99789.00;5090225;28;20285;-67
2023/10/10 09:26:59;;;;;;;9.70;3.60;;;;;;;27.35;36.04;99779.31;5091694;28;20186;-68
2023/10/10 09:29:32;;;;;;;8.10;3.40;;;;;;;27.65;35.76;99781.53;5093904;28;20279;-68
2023/10/10 09:32:00;;;;;;;9.17;3.53;;;;;;;28.08;34.69;99785.66;5082121;28;20195;-68
2023/10/10 09:34:28;;;;;;;11.37;2.90;;;;;;;28.37;33.88;99786.16;5082213;28;20628;-68
2023/10/10 09:36:58;;;;;;;30.37;4.30;;;;;;;28.51;33.70;99785.03;5082843;28;20256;-68
2023/10/10 09:39:36;;;;;;;18.50;2.80;;;;;;;28.59;33.43;99789.00;5083460;28;20195;-68
2023/10/10 09:42:23;;;;;;;9.67;2.87;;;;;;;27.87;34.35;99792.63;5083914;28;20187;-67
2023/10/10 09:45:16;;;;;;;6.70;2.57;;;;;;;27.80;34.63;99787.53;5073340;28;20271;-69
2023/10/10 09:47:55;;;;;;;6.70;3.00;;;;;;;28.10;34.54;99776.03;5073402;28;20223;-68
2023/10/10 09:50:37;;;;;;;8.37;3.00;;;;;;;27.75;34.85;99784.06;5072918;28;20639;-67
2023/10/10 09:53:19;;;;;;;6.73;2.10;;;;;;;27.60;34.96;99770.72;5073325;28;20184;-71
2023/10/10 09:55:45;;;;;;;5.80;2.37;;;;;;;27.80;35.15;99783.97;5073565;28;20242;-73
2023/10/10 09:58:26;;;;;;;16.27;3.97;;;;;;;27.92;35.01;99784.31;5073047;28;20195;-72
2023/10/10 10:01:03;;;;;;;11.20;2.67;;;;;;;28.25;34.81;99789.41;5072969;28;20246;-71
2023/10/10 10:03:36;;;;;;;5.73;1.90;;;;;;;28.40;34.12;99785.53;5072920;28;20184;-71
2023/10/10 10:06:35;;;;;;;4.47;2.10;;;;;;;28.41;33.52;99782.53;5073051;28;20183;-70
2023/10/10 10:09:45;;;;;;;4.10;2.17;;;;;;;28.17;34.39;99783.84;5073093;28;20291;-67
2023/10/10 10:12:31;;;;;;;12.33;3.37;;;;;;;28.29;34.25;99779.47;5072727;28;20270;-70
2023/10/10 10:15:18;;;;;;;12.90;2.33;;;;;;;28.33;33.83;99779.69;5073768;28;20271;-70
2023/10/10 10:17:54;;;;;;;10.90;2.37;;;;;;;28.46;33.83;99768.75;5089061;28;20191;-67
2023/10/10 10:20:33;;;;;;;7.40;1.97;;;;;;;28.57;33.66;99769.34;5082503;28;20615;-68
2023/10/10 10:23:00;;;;;;;3.37;1.50;;;;;;;28.38;33.63;99765.94;5092233;28;20643;-69
2023/10/10 10:25:31;;;;;;;17.63;2.80;;;;;;;28.25;34.30;99772.19;5092756;28;20678;-66
2023/10/10 10:28:10;;;;;;;12.60;3.00;;;;;;;28.51;34.21;99770.59;5087406;28;20207;-68
2023/10/10 10:30:50;;;;;;;21.23;2.63;;;;;;;28.70;33.73;99769.31;5072396;28;20184;-69
2023/10/10 10:33:20;;;;;;;7.77;1.57;;;;;;;28.71;33.66;99768.19;5072235;28;20214;-68
2023/10/10 10:36:15;;;;;;;8.63;2.10;;;;;;;28.42;34.02;99764.22;5072310;28;20258;-68
2023/10/10 10:39:18;;;;;;;11.67;2.67;;;;;;;28.29;34.01;99767.72;5072571;28;20188;-68
2023/10/10 10:41:47;;;;;;;11.03;2.20;;;;;;;27.76;34.84;99764.66;5080151;28;20285;-68
2023/10/10 10:44:28;;;;;;;11.83;2.17;;;;;;;27.74;34.82;99771.53;5091690;28;20184;-68
2023/10/10 10:46:57;;;;;;;20.37;2.73;;;;;;;27.68;34.85;99768.09;5091463;28;20236;-67
2023/10/10 10:49:28;;;;;;;3.83;2.00;;;;;;;27.38;35.19;99748.72;5092131;28;20199;-67
2023/10/10 10:52:17;;;;;;;4.20;1.73;;;;;;;27.17;35.59;99766.50;5092223;28;20264;-67
2023/10/10 10:54:49;;;;;;;1.93;1.73;;;;;;;27.11;35.95;99757.59;5092129;28;20199;-67
2023/10/10 10:57:27;;;;;;;11.90;2.60;;;;;;;27.09;35.95;99769.91;5091898;28;20696;-67
2023/10/10 10:59:55;;;;;;;8.83;2.63;;;;;;;27.02;36.31;99758.56;5091816;28;20281;-67
2023/10/10 11:02:31;;;;;;;5.93;1.83;;;;;;;26.99;36.32;99759.97;5092094;28;20306;-67
2023/10/10 11:04:58;;;;;;;8.80;2.00;;;;;;;26.85;36.78;99755.56;5092069;28;20183;-68
2023/10/10 11:07:41;;;;;;;6.97;2.13;;;;;;;26.56;36.99;99754.84;5092038;28;20618;-67
2023/10/10 11:10:09;;;;;;;5.80;1.93;;;;;;;26.55;37.17;99747.78;5091679;28;20194;-67
2023/10/10 11:12:37;;;;;;;5.97;2.07;;;;;;;26.54;37.18;99751.63;5091699;28;20292;-67
2023/10/10 11:15:11;;;;;;;3.57;1.80;;;;;;;26.40;37.62;99764.34;5090930;28;20278;-66
2023/10/10 11:17:39;;;;;;;5.70;2.97;;;;;;;26.17;38.14;99762.47;5072498;28;20199;-67
2023/10/10 11:20:50;;;;;;;2.77;1.93;;;;;;;26.11;38.14;99752.72;5084557;28;20188;-68
2023/10/10 11:23:17;;;;;;;4.93;2.37;;;;;;;26.03;38.61;99756.91;5071352;28;20525;-67
2023/10/10 11:25:46;;;;;;;2.77;2.10;;;;;;;25.99;38.52;99761.31;5071788;28;20192;-67
2023/10/10 11:28:21;;;;;;;8.20;2.50;;;;;;;25.97;38.78;99757.28;5071931;28;20672;-67
2023/10/10 11:30:50;;;;;;;14.50;2.70;;;;;;;25.82;39.20;99760.94;5071883;28;20187;-67
2023/10/10 11:33:48;;;;;;;5.30;2.40;;;;;;;25.67;39.14;99754.81;5071611;28;20215;-68
2023/10/10 11:36:37;;;;;;;9.80;2.70;;;;;;;25.54;39.71;99753.59;5072050;28;20187;-67
2023/10/10 11:39:16;;;;;;;4.53;3.07;;;;;;;25.58;39.71;99751.13;5071685;28;20683;-66
2023/10/10 11:41:46;;;;;;;18.73;3.67;;;;;;;25.54;39.94;99755.50;5071851;28;20279;-66
2023/10/10 11:44:18;;;;;;;13.67;3.40;;;;;;;25.55;40.42;99757.94;5071292;28;20196;-67
2023/10/10 11:46:46;;;;;;;15.40;3.80;;;;;;;25.50;41.04;99751.72;5071294;28;20184;-67
2023/10/10 11:49:16;;;;;;;9.93;3.67;;;;;;;25.49;40.72;99758.28;5071070;28;20196;-67
2023/10/10 11:51:43;;;;;;;7.07;4.00;;;;;;;25.39;40.10;99752.94;5071182;28;20231;-67
2023/10/10 11:54:10;;;;;;;6.70;3.13;;;;;;;25.39;40.85;99763.81;5071464;28;20268;-67
2023/10/10 11:56:37;;;;;;;10.87;3.60;;;;;;;25.37;40.79;99768.72;5070837;28;20199;-67
2023/10/10 11:59:09;;;;;;;10.10;3.47;;;;;;;25.35;40.66;99766.28;5071031;28;20512;-67
2023/10/10 12:01:51;;;;;;;6.93;3.53;;;;;;;25.11;40.89;99759.94;5070777;28;20239;-67
2023/10/10 12:04:30;;;;;;;12.60;4.27;;;;;;;25.04;42.06;99765.69;5071282;28;20211;-67
2023/10/10 12:07:01;;;;;;;9.70;3.07;;;;;;;24.88;41.87;99761.44;5071167;28;20584;-67
2023/10/10 12:09:29;;;;;;;11.63;3.70;;;;;;;24.88;41.73;99764.16;5070778;28;20682;-67
2023/10/10 12:11:59;;;;;;;6.23;3.73;;;;;;;24.87;41.73;99757.13;5070915;28;20651;-67
2023/10/10 12:14:30;;;;;;;18.90;3.10;;;;;;;24.85;42.28;99767.47;5070611;28;20191;-67
2023/10/10 12:16:58;;;;;;;5.93;2.80;;;;;;;24.91;41.75;99763.63;5071032;28;20184;-66
2023/10/10 12:19:29;;;;;;;9.57;3.83;;;;;;;25.07;41.63;99764.31;5080342;28;20233;-67
2023/10/10 12:22:03;;;;;;;4.90;3.17;;;;;;;25.07;41.89;99758.06;5071084;28;20250;-67
2023/10/10 12:24:30;;;;;;;11.93;3.40;;;;;;;25.21;41.80;99762.59;5070952;28;20201;-67
2023/10/10 12:26:56;;;;;;;10.57;5.63;;;;;;;25.20;42.00;99762.84;5070878;28;20708;-67
2023/10/10 12:29:23;;;;;;;7.50;3.37;;;;;;;25.26;41.62;99761.72;5071092;28;20759;-67
2023/10/10 12:31:55;;;;;;;23.53;3.40;;;;;;;25.20;41.23;99762.84;5071495;28;20224;-67
2023/10/10 12:34:23;;;;;;;7.60;2.63;;;;;;;25.36;41.21;99761.66;5074391;28;20187;-67
2023/10/10 12:36:59;;;;;;;7.13;2.47;;;;;;;25.30;41.60;99762.78;5090276;28;20199;-67
2023/10/10 12:39:28;;;;;;;8.30;2.00;;;;;;;25.38;41.52;99762.19;5090650;28;20186;-67
2023/10/10 12:41:55;;;;;;;3.93;2.33;;;;;;;25.41;41.25;99754.28;5091124;28;20229;-67
2023/10/10 12:44:23;;;;;;;5.03;1.97;;;;;;;25.53;40.95;99759.31;5090960;28;20195;-67
2023/10/10 12:46:54;;;;;;;4.10;1.63;;;;;;;25.45;41.29;99755.34;5090809;28;20202;-67
2023/10/10 12:49:28;;;;;;;2.67;2.13;;;;;;;25.41;40.93;99767.06;5090918;28;20199;-67
2023/10/10 12:51:57;;;;;;;6.10;2.53;;;;;;;25.39;41.31;99766.53;5091077;28;20710;-67
2023/10/10 12:54:34;;;;;;;10.10;2.50;;;;;;;25.36;41.48;99773.38;5090617;28;20237;-67
2023/10/10 12:57:05;;;;;;;5.13;1.83;;;;;;;25.32;41.63;99766.06;5083755;28;20688;-67
2023/10/10 12:59:33;;;;;;;9.03;1.53;;;;;;;25.22;41.54;99774.25;5090236;28;20270;-67
2023/10/10 13:02:00;;;;;;;4.70;1.70;;;;;;;25.14;41.13;99775.69;5092771;28;20256;-67
2023/10/10 13:04:31;;;;;;;4.13;1.50;;;;;;;25.13;41.14;99773.25;5094598;28;20187;-68
2023/10/10 13:07:06;;;;;;;3.10;1.10;;;;;;;25.13;41.10;99778.69;5094818;28;20563;-66
2023/10/10 13:09:37;;;;;;;6.30;1.63;;;;;;;25.14;40.99;99774.88;5094439;28;20179;-68
2023/10/10 13:12:03;;;;;;;18.43;1.83;;;;;;;25.09;41.42;99762.13;5094448;28;20727;-68
2023/10/10 13:14:32;;;;;;;7.43;1.43;;;;;;;25.13;41.66;99775.97;5094383;28;20735;-68
2023/10/10 13:19:40;;;;;;;7.30;1.50;;;;;;;25.08;41.56;99776.81;5087713;28;20198;-67
2023/10/10 13:22:20;;;;;;;9.00;1.83;;;;;;;25.13;41.03;99773.25;5094707;28;20260;-67
2023/10/10 13:24:47;;;;;;;6.23;1.47;;;;;;;25.15;41.16;99785.47;5093738;28;20559;-67
2023/10/10 13:27:14;;;;;;;3.00;1.20;;;;;;;25.20;41.34;99780.00;5094442;28;20702;-68
2023/10/10 13:29:40;;;;;;;1.00;1.00;;;;;;;25.24;40.72;99791.94;5087810;28;20199;-68
2023/10/10 13:32:07;;;;;;;15.73;2.00;;;;;;;25.22;41.62;99798.72;5077174;28;20216;-66
2023/10/10 13:34:37;;;;;;;6.03;1.33;;;;;;;25.19;41.96;99786.50;5081101;28;20199;-68
2023/10/10 13:37:07;;;;;;;6.70;1.63;;;;;;;25.19;42.28;99789.22;5081073;28;20264;-66
2023/10/10 13:39:43;;;;;;;10.80;1.60;;;;;;;25.19;42.37;99780.28;5093661;28;20198;-67
2023/10/10 13:42:14;;;;;;;2.80;1.90;;;;;;;25.17;42.69;99780.56;5094533;28;20191;-67
2023/10/10 13:44:41;;;;;;;8.63;2.67;;;;;;;25.10;43.35;99784.72;5093962;28;20187;-67
2023/10/10 13:47:07;;;;;;;7.33;2.03;;;;;;;25.06;42.95;99780.94;5094033;28;20248;-68
2023/10/10 13:49:44;;;;;;;9.60;2.57;;;;;;;25.08;43.39;99776.00;5093244;28;20574;-66